createdAt,value
2018-02-07T00:14:49.828Z,23.40
2018-02-07T00:17:17.668Z,22.03
2018-02-07T00:19:45.200Z,21.50
2018-02-07T00:22:14.624Z,24.60
2018-02-07T00:24:42.195Z,21.57
2018-02-07T00:27:09.729Z,21.20
2018-02-07T00:29:38.932Z,22.33
2018-02-07T00:32:06.509Z,22.87
2018-02-07T00:34:34.257Z,21.80
2018-02-07T00:37:01.797Z,22.80
2018-02-07T00:39:29.704Z,25.10
2018-02-07T00:41:57.225Z,21.73
2018-02-07T00:44:24.754Z,24.43
2018-02-07T00:46:52.307Z,21.10
2018-02-07T00:49:19.859Z,21.80
2018-02-07T00:51:47.692Z,22.53
2018-02-07T00:54:15.331Z,23.17
2018-02-07T00:56:42.897Z,21.90
2018-02-07T00:59:10.412Z,22.30
2018-02-07T01:01:38.095Z,20.90
2018-02-07T01:04:05.871Z,24.10
2018-02-07T01:06:33.407Z,22.90
2018-02-07T01:09:00.962Z,24.10
2018-02-07T01:11:28.496Z,22.70
2018-02-07T01:13:56.020Z,22.30
2018-02-07T01:16:23.568Z,24.20
2018-02-07T01:18:51.093Z,23.80
2018-02-07T01:21:18.632Z,22.70
2018-02-07T01:23:46.216Z,23.23
2018-02-07T01:26:13.966Z,23.40
2018-02-07T01:28:41.507Z,24.97
2018-02-07T01:31:09.096Z,23.23
2018-02-07T01:33:36.609Z,23.50
2018-02-07T01:36:04.126Z,24.50
2018-02-07T01:38:31.699Z,23.00
2018-02-07T01:40:59.221Z,23.50
2018-02-07T01:43:26.742Z,26.30
2018-02-07T01:45:54.324Z,24.77
2018-02-07T01:48:22.100Z,23.73
2018-02-07T01:50:49.636Z,23.13
2018-02-07T01:53:17.447Z,23.93
2018-02-07T01:55:45.287Z,24.30
2018-02-07T01:58:12.825Z,21.43
2018-02-07T02:00:40.377Z,24.57
2018-02-07T02:03:07.911Z,21.77
2018-02-07T02:05:35.460Z,22.10
2018-02-07T02:08:03.020Z,23.77
2018-02-07T02:10:30.569Z,21.60
2018-02-07T02:12:58.101Z,22.10
2018-02-07T02:15:25.660Z,20.80
2018-02-07T02:17:54.143Z,22.77
2018-02-07T02:20:21.687Z,20.70
2018-02-07T02:22:49.249Z,18.87
2018-02-07T02:25:16.783Z,20.03
2018-02-07T02:27:44.301Z,20.77
2018-02-07T02:30:11.976Z,19.77
2018-02-07T02:32:39.506Z,20.60
2018-02-07T02:35:07.373Z,21.27
2018-02-07T02:37:35.168Z,21.10
2018-02-07T02:40:02.729Z,21.17
2018-02-07T02:42:30.268Z,21.00
2018-02-07T02:44:57.848Z,20.80
2018-02-07T02:47:25.373Z,20.13
2018-02-07T02:49:52.908Z,20.10
2018-02-07T02:52:20.459Z,20.23
2018-02-07T02:54:47.985Z,20.00
2018-02-07T02:57:15.520Z,20.30
2018-02-07T02:59:43.093Z,19.07
2018-02-07T03:02:10.653Z,20.03
2018-02-07T03:04:38.191Z,20.27
2018-02-07T03:07:05.733Z,19.13
2018-02-07T03:09:33.301Z,20.00
2018-02-07T03:12:01.065Z,17.53
2018-02-07T03:14:28.596Z,20.03
2018-02-07T03:16:56.378Z,19.00
2018-02-07T03:19:23.896Z,17.77
2018-02-07T03:21:51.441Z,18.10
2018-02-07T03:24:19.011Z,17.70
2018-02-07T03:26:46.608Z,19.67
2018-02-07T03:29:14.162Z,19.53
2018-02-07T03:31:41.775Z,19.80
2018-02-07T03:34:09.334Z,18.37
2018-02-07T03:36:36.895Z,18.10
2018-02-07T03:39:04.474Z,21.17
2018-02-07T03:41:31.999Z,20.97
2018-02-07T03:43:59.852Z,19.30
2018-02-07T03:46:27.440Z,18.77
2018-02-07T03:48:55.459Z,21.40
2018-02-07T03:51:23.229Z,21.33
2018-02-07T03:53:50.803Z,20.23
2018-02-07T03:56:18.377Z,19.27
2018-02-07T03:58:46.593Z,18.93
2018-02-07T04:01:14.193Z,20.60
2018-02-07T04:03:41.716Z,20.77
2018-02-07T04:06:09.476Z,21.10
2018-02-07T04:08:37.038Z,19.10
2018-02-07T04:11:04.569Z,21.37
2018-02-07T04:13:32.110Z,20.30
2018-02-07T04:15:59.672Z,20.83
2018-02-07T04:18:27.188Z,21.73
2018-02-07T04:20:54.706Z,20.57
2018-02-07T04:23:22.292Z,22.77
2018-02-07T04:25:49.830Z,24.97
2018-02-07T04:28:18.544Z,24.50
2018-02-07T04:30:46.300Z,26.23
2018-02-07T04:33:13.833Z,25.27
2018-02-07T04:35:41.692Z,23.40
2018-02-07T04:38:09.864Z,25.23
2018-02-07T04:40:38.640Z,23.43
2018-02-07T04:43:06.413Z,18.50
2018-02-07T04:45:33.985Z,20.20
2018-02-07T04:48:01.565Z,20.47
2018-02-07T04:50:29.152Z,21.93
2018-02-07T04:52:56.740Z,21.17
2018-02-07T04:55:24.295Z,21.10
2018-02-07T04:57:51.834Z,20.80
2018-02-07T05:00:19.495Z,21.53
2018-02-07T05:02:47.090Z,22.23
2018-02-07T05:05:14.669Z,21.30
2018-02-07T05:07:42.223Z,20.37
2018-02-07T05:10:09.781Z,20.90
2018-02-07T05:12:37.564Z,20.57
2018-02-07T05:15:05.105Z,25.40
2018-02-07T05:17:32.629Z,22.40
2018-02-07T05:20:00.175Z,22.70
2018-02-07T05:22:27.747Z,21.57
2018-02-07T05:24:55.277Z,20.33
2018-02-07T05:27:22.832Z,24.40
2018-02-07T05:29:50.396Z,22.97
2018-02-07T05:32:17.951Z,21.73
2018-02-07T05:34:45.471Z,23.23
2018-02-07T05:37:12.999Z,23.20
2018-02-07T05:39:40.689Z,22.83
2018-02-07T05:42:08.235Z,23.27
2018-02-07T05:44:35.771Z,21.67
2018-02-07T05:47:03.323Z,22.37
2018-02-07T05:49:30.884Z,21.58
2018-02-07T05:51:58.412Z,25.33
2018-02-07T05:54:25.969Z,22.13
2018-02-07T05:56:53.572Z,25.75
2018-02-07T05:59:21.121Z,24.80
2018-02-07T06:01:48.690Z,25.52
2018-02-07T06:04:16.499Z,21.73
2018-02-07T06:06:44.116Z,25.42
2018-02-07T06:09:11.673Z,22.55
2018-02-07T06:11:39.217Z,24.98
2018-02-07T06:14:06.777Z,29.73
2018-02-07T06:16:34.356Z,28.87
2018-02-07T06:19:01.896Z,21.20
2018-02-07T06:21:29.421Z,23.75
2018-02-07T06:23:57.025Z,22.30
2018-02-07T06:26:24.542Z,22.40
2018-02-07T06:28:52.325Z,18.62
2018-02-07T06:31:19.900Z,23.75
2018-02-07T06:33:47.435Z,22.35
2018-02-07T06:36:14.965Z,25.80
2018-02-07T06:38:42.525Z,21.35
2018-02-07T06:41:10.051Z,22.77
2018-02-07T06:43:37.827Z,20.83
2018-02-07T06:46:05.402Z,23.00
2018-02-07T06:48:32.963Z,24.15
2018-02-07T06:51:00.516Z,24.42
2018-02-07T06:53:28.071Z,22.50
2018-02-07T06:55:55.601Z,18.60
2018-02-07T06:58:24.408Z,22.02
2018-02-07T07:01:07.440Z,21.70
2018-02-07T07:03:34.968Z,18.80
2018-02-07T07:06:02.664Z,21.87
2018-02-07T07:08:30.323Z,21.50
2018-02-07T07:10:57.846Z,25.10
2018-02-07T07:13:25.396Z,21.30
2018-02-07T07:15:52.959Z,19.93
2018-02-07T07:18:20.492Z,19.30
2018-02-07T07:20:48.028Z,17.93
2018-02-07T07:23:15.593Z,26.67
2018-02-07T07:25:43.156Z,23.53
2018-02-07T07:28:10.677Z,21.80
2018-02-07T07:30:39.312Z,17.70
2018-02-07T07:33:06.837Z,20.00
2018-02-07T07:35:34.377Z,16.23
2018-02-07T07:38:01.952Z,17.40
2018-02-07T07:40:29.473Z,17.50
2018-02-07T07:42:56.999Z,18.30
2018-02-07T07:45:24.604Z,18.27
2018-02-07T07:47:52.125Z,17.67
2018-02-07T07:50:19.649Z,17.73
2018-02-07T07:52:47.209Z,15.60
2018-02-07T07:55:14.756Z,16.60
2018-02-07T07:57:42.295Z,19.50
2018-02-07T08:00:09.981Z,17.90
2018-02-07T08:02:37.553Z,20.97
2018-02-07T08:05:05.128Z,17.57
2018-02-07T08:07:32.691Z,14.73
2018-02-07T08:10:00.219Z,17.17
2018-02-07T08:12:27.746Z,15.23
2018-02-07T08:14:55.306Z,15.30
2018-02-07T08:17:22.816Z,16.53
2018-02-07T08:19:50.350Z,17.90
2018-02-07T08:22:17.892Z,17.40
2018-02-07T08:24:45.418Z,17.30
2018-02-07T08:27:12.964Z,18.17
2018-02-07T08:29:40.551Z,14.93
2018-02-07T08:32:08.116Z,15.17
2018-02-07T08:34:35.668Z,17.83
2018-02-07T08:37:03.208Z,19.23
2018-02-07T08:39:30.882Z,18.77
2018-02-07T08:41:58.407Z,18.57
2018-02-07T08:44:25.929Z,19.53
2018-02-07T08:46:53.470Z,20.20
2018-02-07T08:49:21.004Z,13.93
2018-02-07T08:51:48.536Z,19.80
2018-02-07T08:54:16.102Z,17.57
2018-02-07T08:56:43.893Z,15.10
2018-02-07T08:59:11.418Z,17.27
2018-02-07T09:01:38.993Z,17.90
2018-02-07T09:04:06.527Z,17.30
2018-02-07T09:06:34.060Z,14.63
2018-02-07T09:09:01.617Z,17.30
2018-02-07T09:11:29.141Z,15.87
2018-02-07T09:13:56.676Z,17.63
2018-02-07T09:16:24.235Z,16.90
2018-02-07T09:18:51.777Z,14.60
2018-02-07T09:21:19.359Z,14.30
2018-02-07T09:23:46.901Z,16.20
2018-02-07T09:26:14.425Z,15.57
2018-02-07T09:28:41.936Z,15.30
2018-02-07T09:31:09.498Z,16.20
2018-02-07T09:33:37.035Z,14.30
2018-02-07T09:36:04.564Z,15.70
2018-02-07T09:38:32.124Z,15.40
2018-02-07T09:40:59.669Z,14.47
2018-02-07T09:43:27.181Z,14.20
2018-02-07T09:45:54.765Z,13.50
2018-02-07T09:48:22.307Z,14.40
2018-02-07T09:50:49.877Z,13.33
2018-02-07T09:53:17.465Z,12.87
2018-02-07T09:55:44.995Z,14.70
2018-02-07T09:58:12.522Z,16.20
2018-02-07T10:00:40.069Z,15.83
2018-02-07T10:03:07.604Z,12.73
2018-02-07T10:05:35.130Z,14.13
2018-02-07T10:08:02.680Z,14.40
2018-02-07T10:10:30.198Z,14.70
2018-02-07T10:12:57.725Z,15.00
2018-02-07T10:15:25.390Z,12.57
2018-02-07T10:17:52.922Z,13.97
2018-02-07T10:20:20.451Z,13.40
2018-02-07T10:22:48.011Z,13.20
2018-02-07T10:25:15.824Z,13.80
2018-02-07T10:27:43.320Z,12.17
2018-02-07T10:30:10.934Z,14.67
2018-02-07T10:32:38.461Z,14.17
2018-02-07T10:35:05.999Z,14.13
2018-02-07T10:37:33.554Z,14.70
2018-02-07T10:40:01.089Z,14.23
2018-02-07T10:42:28.621Z,12.03
2018-02-07T10:44:56.198Z,10.97
2018-02-07T10:47:23.727Z,12.70
2018-02-07T10:49:51.265Z,12.00
2018-02-07T10:52:18.822Z,13.83
2018-02-07T10:54:46.333Z,11.63
2018-02-07T10:57:13.878Z,12.33
2018-02-07T10:59:41.451Z,12.40
2018-02-07T11:02:09.221Z,13.63
2018-02-07T11:04:36.733Z,13.67
2018-02-07T11:07:04.304Z,12.80
2018-02-07T11:09:31.871Z,14.10
2018-02-07T11:11:59.387Z,13.70
2018-02-07T11:14:26.917Z,11.80
2018-02-07T11:16:54.472Z,13.47
2018-02-07T11:19:21.991Z,13.60
2018-02-07T11:21:49.521Z,14.40
2018-02-07T11:24:17.073Z,13.90
2018-02-07T11:26:44.849Z,14.70
2018-02-07T11:29:12.386Z,15.50
2018-02-07T11:31:40.223Z,15.37
2018-02-07T11:34:07.765Z,13.33
2018-02-07T11:36:35.346Z,13.80
2018-02-07T11:39:02.910Z,13.50
2018-02-07T11:41:30.467Z,14.30
2018-02-07T11:43:58.058Z,12.77
2018-02-07T11:46:25.876Z,14.77
2018-02-07T11:48:53.385Z,12.90
2018-02-07T11:51:20.915Z,13.03
2018-02-07T11:53:49.172Z,15.00
2018-02-07T11:56:16.744Z,13.93
2018-02-07T11:58:44.277Z,13.30
2018-02-07T12:01:11.957Z,12.10
2018-02-07T12:03:39.556Z,13.10
2018-02-07T12:06:07.355Z,12.77
2018-02-07T12:08:35.258Z,13.50
2018-02-07T12:11:03.020Z,12.70
2018-02-07T12:13:31.004Z,12.27
2018-02-07T12:15:58.593Z,12.33
2018-02-07T12:18:26.132Z,12.43
2018-02-07T12:20:53.719Z,12.90
2018-02-07T12:23:21.268Z,12.23
2018-02-07T12:25:48.869Z,12.87
2018-02-07T12:28:16.750Z,17.30
2018-02-07T12:30:44.588Z,14.17
2018-02-07T12:33:12.157Z,15.40
2018-02-07T12:35:39.685Z,14.17
2018-02-07T12:38:07.226Z,12.57
2018-02-07T12:40:34.758Z,13.43
2018-02-07T12:43:02.304Z,13.63
2018-02-07T12:45:29.873Z,14.53
2018-02-07T12:47:57.385Z,12.30
2018-02-07T12:50:24.931Z,14.10
2018-02-07T12:52:52.484Z,12.03
2018-02-07T12:55:20.011Z,11.23
2018-02-07T12:57:47.554Z,11.23
2018-02-07T13:00:15.131Z,12.20
2018-02-07T13:02:42.665Z,13.67
2018-02-07T13:05:10.224Z,12.23
2018-02-07T13:07:38.010Z,12.20
2018-02-07T13:10:05.525Z,12.20
2018-02-07T13:12:33.074Z,14.10
2018-02-07T13:15:01.767Z,14.60
2018-02-07T13:17:29.333Z,14.13
2018-02-07T13:19:56.902Z,14.67
2018-02-07T13:22:25.438Z,14.00
2018-02-07T13:24:52.983Z,13.50
2018-02-07T13:27:20.507Z,13.97
2018-02-07T13:29:48.055Z,12.13
2018-02-07T13:32:15.844Z,12.87
2018-02-07T13:34:43.375Z,14.53
2018-02-07T13:37:10.908Z,11.87
2018-02-07T13:39:38.463Z,13.77
2018-02-07T13:42:06.002Z,14.50
2018-02-07T13:44:33.513Z,12.17
2018-02-07T13:47:01.041Z,14.90
2018-02-07T13:49:28.604Z,11.13
2018-02-07T13:51:56.136Z,14.30
2018-02-07T13:54:23.702Z,12.27
2018-02-07T13:56:51.262Z,15.40
2018-02-07T13:59:18.805Z,11.30
2018-02-07T14:01:46.477Z,14.60
2018-02-07T14:04:14.001Z,13.13
2018-02-07T14:06:41.536Z,15.60
2018-02-07T14:09:09.095Z,13.40
2018-02-07T14:11:36.655Z,14.77
2018-02-07T14:14:04.195Z,12.00
2018-02-07T14:16:31.786Z,11.47
2018-02-07T14:18:59.359Z,10.43
2018-02-07T14:21:26.871Z,12.37
2018-02-07T14:23:54.470Z,11.23
2018-02-07T14:26:22.021Z,11.20
2018-02-07T14:28:49.556Z,12.90
2018-02-07T14:31:17.144Z,11.67
2018-02-07T14:33:44.904Z,12.70
2018-02-07T14:36:12.430Z,13.27
2018-02-07T14:38:40.048Z,9.80
2018-02-07T14:41:07.588Z,11.60
2018-02-07T14:43:36.096Z,12.80
2018-02-07T14:46:03.762Z,14.13
2018-02-07T14:48:31.322Z,13.45
2018-02-07T14:50:59.107Z,13.80
2018-02-07T14:53:26.694Z,12.25
2018-02-07T14:55:55.154Z,15.80
2018-02-07T14:58:22.674Z,12.15
2018-02-07T15:00:50.232Z,14.90
2018-02-07T15:03:17.757Z,13.45
2018-02-07T15:05:45.296Z,10.10
2018-02-07T15:08:12.869Z,12.13
2018-02-07T15:10:40.406Z,11.38
2018-02-07T15:13:07.960Z,13.02
2018-02-07T15:15:35.509Z,15.30
2018-02-07T15:18:03.286Z,12.33
2018-02-07T15:20:31.206Z,15.73
2018-02-07T15:22:58.772Z,12.60
2018-02-07T15:25:26.289Z,12.40
2018-02-07T15:27:54.050Z,13.23
2018-02-07T15:30:21.638Z,12.57
2018-02-07T15:32:49.172Z,14.57
2018-02-07T15:35:16.726Z,16.43
2018-02-07T15:37:45.551Z,13.73
2018-02-07T15:40:13.141Z,16.50
2018-02-07T15:42:40.674Z,16.10
2018-02-07T15:45:25.712Z,16.27
2018-02-07T15:47:53.238Z,13.50
2018-02-07T15:53:17.130Z,14.60
2018-02-07T15:55:47.317Z,13.40
2018-02-07T15:58:27.696Z,14.47
2018-02-07T16:01:00.540Z,13.60
2018-02-07T16:03:28.226Z,15.27
2018-02-07T16:06:17.080Z,14.43
2018-02-07T16:08:44.771Z,16.00
2018-02-07T16:13:51.851Z,20.40
2018-02-07T16:16:19.368Z,19.20
2018-02-07T16:18:46.897Z,18.50
2018-02-07T16:21:14.480Z,20.03
2018-02-07T16:23:48.260Z,18.10
2018-02-07T16:26:34.098Z,19.10
2018-02-07T16:29:01.635Z,19.30
2018-02-07T16:31:29.197Z,17.83
2018-02-07T16:33:57.295Z,19.37
2018-02-07T16:36:25.154Z,18.60
2018-02-07T16:38:52.855Z,17.33
2018-02-07T16:41:20.475Z,19.00
2018-02-07T16:46:39.719Z,18.50
2018-02-07T16:49:22.839Z,18.90
2018-02-07T16:51:50.393Z,16.57
2018-02-07T16:57:04.016Z,16.57
2018-02-07T16:59:31.568Z,16.20
2018-02-07T17:01:59.237Z,17.10
2018-02-07T17:04:28.128Z,17.67
2018-02-07T17:06:59.154Z,18.40
2018-02-07T17:09:26.743Z,17.20
2018-02-07T17:12:06.772Z,18.57
2018-02-07T17:14:34.583Z,16.40
2018-02-07T17:17:02.174Z,15.73
2018-02-07T17:19:29.816Z,19.60
2018-02-07T17:21:57.526Z,19.80
2018-02-07T17:24:25.050Z,17.57
2018-02-07T17:26:55.662Z,20.33
2018-02-07T17:29:23.679Z,20.17
2018-02-07T17:31:52.817Z,21.57
2018-02-07T17:34:20.483Z,20.70
2018-02-07T17:36:48.017Z,20.17
2018-02-07T17:41:50.249Z,19.47
2018-02-07T17:44:38.656Z,18.83
2018-02-07T17:47:06.240Z,18.30
2018-02-07T17:49:46.264Z,17.97
2018-02-07T17:52:13.791Z,19.87
2018-02-07T17:54:44.673Z,18.67
2018-02-07T17:57:12.292Z,17.50
2018-02-07T18:00:04.571Z,20.20
2018-02-07T18:02:32.477Z,16.90
2018-02-07T18:05:00.066Z,21.00
2018-02-07T18:07:27.603Z,19.30
2018-02-07T18:09:55.178Z,18.50
2018-02-07T18:12:22.750Z,19.20
2018-02-07T18:14:50.457Z,18.07
2018-02-07T18:17:18.193Z,14.10
2018-02-07T18:19:45.996Z,20.07
2018-02-07T18:22:15.659Z,21.03
2018-02-07T18:24:43.258Z,18.17
2018-02-07T18:27:10.856Z,21.67
2018-02-07T18:29:38.413Z,18.07
2018-02-07T18:32:06.024Z,14.33
2018-02-07T18:34:34.939Z,16.27
2018-02-07T18:37:02.837Z,19.70
2018-02-07T18:39:30.518Z,17.00
2018-02-07T18:41:58.871Z,14.00
2018-02-07T18:44:26.701Z,16.90
2018-02-07T18:46:54.374Z,16.27
2018-02-07T18:49:21.940Z,18.80
2018-02-07T18:51:49.569Z,19.60
2018-02-07T18:54:17.604Z,18.77
2018-02-07T18:56:45.164Z,18.10
2018-02-07T18:59:12.709Z,19.03
2018-02-07T19:01:40.287Z,19.50
2018-02-07T19:04:07.810Z,20.40
2018-02-07T19:06:35.999Z,18.87
2018-02-07T19:09:03.593Z,16.47
2018-02-07T19:11:31.208Z,19.30
2018-02-07T19:13:58.747Z,19.42
2018-02-07T19:16:26.303Z,19.23
2018-02-07T19:18:54.633Z,18.00
2018-02-07T19:21:22.202Z,23.48
2018-02-07T19:23:49.948Z,18.37
2018-02-07T19:26:18.842Z,18.30
2018-02-07T19:28:46.409Z,18.62
2018-02-07T19:31:14.327Z,20.17
2018-02-07T19:33:42.975Z,18.40
2018-02-07T19:36:11.591Z,20.67
2018-02-07T19:38:41.846Z,19.90
2018-02-07T19:41:09.649Z,19.65
2018-02-07T19:43:37.295Z,21.60
2018-02-07T19:46:05.123Z,18.87
2018-02-07T19:48:32.842Z,16.53
2018-02-07T19:51:01.100Z,17.30
2018-02-07T19:53:28.931Z,25.60
2018-02-07T19:55:57.391Z,19.03
2018-02-07T19:58:24.959Z,20.95
2018-02-07T20:00:52.563Z,17.97
2018-02-07T20:03:20.800Z,21.08
2018-02-07T20:05:48.335Z,20.73
2018-02-07T20:08:16.104Z,20.80
2018-02-07T20:10:43.706Z,18.27
2018-02-07T20:13:11.294Z,21.53
2018-02-07T20:15:39.069Z,20.20
2018-02-07T20:18:08.707Z,18.80
2018-02-07T20:20:37.112Z,16.70
2018-02-07T20:23:04.965Z,19.00
2018-02-07T20:25:32.847Z,19.00
2018-02-07T20:28:00.533Z,18.97
2018-02-07T20:30:28.375Z,17.43
2018-02-07T20:32:56.741Z,17.70
2018-02-07T20:35:24.627Z,15.30
2018-02-07T20:37:54.494Z,12.80
2018-02-07T20:40:22.893Z,18.03
2018-02-07T20:42:51.762Z,14.77
2018-02-07T20:45:19.690Z,16.93
2018-02-07T20:47:47.720Z,16.00
2018-02-07T20:50:15.814Z,13.82
2018-02-07T20:52:45.465Z,13.10
2018-02-07T20:55:13.659Z,14.47
2018-02-07T20:57:41.364Z,12.23
2018-02-07T21:00:10.325Z,15.37
2018-02-07T21:02:44.561Z,14.00
2018-02-07T21:05:13.254Z,16.70
2018-02-07T21:07:41.125Z,15.47
2018-02-07T21:10:09.128Z,17.10
2018-02-07T21:12:37.135Z,14.80
2018-02-07T21:15:05.185Z,15.83
2018-02-07T21:17:33.539Z,15.70
2018-02-07T21:20:01.265Z,17.03
2018-02-07T21:22:29.380Z,19.30
2018-02-07T21:24:57.150Z,19.77
2018-02-07T21:27:24.868Z,16.20
2018-02-07T21:29:52.400Z,19.57
2018-02-07T21:32:19.982Z,20.25
2018-02-07T21:34:47.510Z,19.00
2018-02-07T21:37:15.023Z,18.57
2018-02-07T21:39:42.583Z,20.60
2018-02-07T21:42:10.341Z,19.17
2018-02-07T21:44:37.873Z,17.13
2018-02-07T21:47:05.715Z,17.43
2018-02-07T21:49:33.264Z,15.17
2018-02-07T21:52:00.794Z,18.23
2018-02-07T21:54:28.360Z,18.20
2018-02-07T21:56:55.871Z,18.03
2018-02-07T21:59:23.654Z,17.93
2018-02-07T22:01:51.216Z,18.77
2018-02-07T22:04:19.523Z,20.27
2018-02-07T22:06:47.076Z,17.40
2018-02-07T22:09:14.776Z,21.47
2018-02-07T22:11:42.311Z,18.70
2018-02-07T22:14:09.848Z,18.90
2018-02-07T22:16:42.549Z,17.07
2018-02-07T22:19:13.384Z,18.30
2018-02-07T22:21:40.921Z,18.13
2018-02-07T22:24:08.657Z,18.63
2018-02-07T22:26:36.179Z,18.40
2018-02-07T22:29:03.736Z,18.53
2018-02-07T22:31:31.584Z,17.53
2018-02-07T22:33:59.176Z,18.00
2018-02-07T22:36:26.958Z,15.77
2018-02-07T22:38:54.514Z,19.10
2018-02-07T22:41:22.406Z,16.13
2018-02-07T22:43:49.962Z,15.40
2018-02-07T22:46:17.526Z,14.53
2018-02-07T22:48:45.051Z,14.53
2018-02-07T22:51:12.584Z,16.37
2018-02-07T22:53:40.512Z,15.77
2018-02-07T22:56:08.048Z,15.07
2018-02-07T22:58:35.565Z,15.77
2018-02-07T23:01:03.331Z,17.80
2018-02-07T23:03:30.861Z,18.87
2018-02-07T23:05:58.573Z,18.87
2018-02-07T23:08:26.131Z,17.93
2018-02-07T23:10:53.674Z,18.27
2018-02-07T23:13:21.208Z,17.60
2018-02-07T23:15:48.763Z,18.10
2018-02-07T23:18:16.283Z,14.07
2018-02-07T23:20:44.074Z,16.97
2018-02-07T23:23:11.653Z,17.87
2018-02-07T23:25:39.572Z,17.47
2018-02-07T23:28:07.227Z,14.50
2018-02-07T23:30:35.063Z,17.12
2018-02-07T23:33:02.865Z,15.80
2018-02-07T23:35:30.407Z,16.03
2018-02-07T23:37:57.946Z,18.10
2018-02-07T23:40:25.526Z,18.37
2018-02-07T23:42:53.186Z,17.20
2018-02-07T23:45:20.779Z,20.07
2018-02-07T23:47:48.303Z,21.63
2018-02-07T23:50:16.216Z,22.77
2018-02-07T23:52:43.756Z,20.43
2018-02-07T23:55:11.268Z,19.65
2018-02-07T23:57:38.805Z,21.15
